createdAt,value
2017-06-18T00:00:29.094Z,48.2
2017-06-18T00:01:09.550Z,48.01
2017-06-18T00:01:50.029Z,48.2
2017-06-18T00:02:30.480Z,48.3
2017-06-18T00:03:10.937Z,48.3
2017-06-18T00:03:51.401Z,48.39
2017-06-18T00:04:31.854Z,48.39
2017-06-18T00:05:12.311Z,48.39
2017-06-18T00:05:52.766Z,48.11
2017-06-18T00:06:33.221Z,48.3
2017-06-18T00:07:13.665Z,48.11
2017-06-18T00:07:54.128Z,48.3
2017-06-18T00:08:34.580Z,48.69
2017-06-18T00:09:15.060Z,48.59
2017-06-18T00:09:55.499Z,48.3
2017-06-18T00:10:35.960Z,48.01
2017-06-18T00:11:16.437Z,48.2
2017-06-18T00:11:56.877Z,48.2
2017-06-18T00:12:37.336Z,48.2
2017-06-18T00:13:17.796Z,48.11
2017-06-18T00:13:58.253Z,48.11
2017-06-18T00:14:38.707Z,48.49
2017-06-18T00:15:19.167Z,48.59
2017-06-18T00:15:59.623Z,48.88
2017-06-18T00:16:40.082Z,48.79
2017-06-18T00:17:20.539Z,48.79
2017-06-18T00:18:00.997Z,48.59
2017-06-18T00:18:41.453Z,48.3
2017-06-18T00:19:21.915Z,48.69
2017-06-18T00:20:02.375Z,48.39
2017-06-18T00:20:42.825Z,48.69
2017-06-18T00:21:23.287Z,48.79
2017-06-18T00:22:03.738Z,48.3
2017-06-18T00:22:44.201Z,48.3
2017-06-18T00:23:24.656Z,48.59
2017-06-18T00:24:05.118Z,48.3
2017-06-18T00:24:45.575Z,48.39
2017-06-18T00:25:26.029Z,48.39
2017-06-18T00:26:06.489Z,48.39
2017-06-18T00:26:46.939Z,48.69
2017-06-18T00:27:27.403Z,48.69
2017-06-18T00:28:07.859Z,48.59
2017-06-18T00:28:48.312Z,48.59
2017-06-18T00:29:28.766Z,48.79
2017-06-18T00:30:09.224Z,48.49
2017-06-18T00:30:49.684Z,48.59
2017-06-18T00:31:30.141Z,48.49
2017-06-18T00:32:10.598Z,48.39
2017-06-18T00:32:51.054Z,48.49
2017-06-18T00:33:31.513Z,48.3
2017-06-18T00:34:11.969Z,48.79
2017-06-18T00:34:52.427Z,48.49
2017-06-18T00:35:32.918Z,48.69
2017-06-18T00:36:13.378Z,48.39
2017-06-18T00:36:53.809Z,48.59
2017-06-18T00:37:34.273Z,48.59
2017-06-18T00:38:14.729Z,48.59
2017-06-18T00:38:55.186Z,48.59
2017-06-18T00:39:35.646Z,48.59
2017-06-18T00:40:16.109Z,48.69
2017-06-18T00:40:56.587Z,48.69
2017-06-18T00:41:37.044Z,48.59
2017-06-18T00:42:17.502Z,48.59
2017-06-18T00:42:57.960Z,48.59
2017-06-18T00:43:38.415Z,48.49
2017-06-18T00:44:18.873Z,48.59
2017-06-18T00:44:59.312Z,48.59
2017-06-18T00:45:39.772Z,48.49
2017-06-18T00:46:20.222Z,48.59
2017-06-18T00:47:00.673Z,48.49
2017-06-18T00:47:41.115Z,48.69
2017-06-18T00:48:21.569Z,48.59
2017-06-18T00:49:02.030Z,48.59
2017-06-18T00:49:42.501Z,48.59
2017-06-18T00:50:22.970Z,48.59
2017-06-18T00:51:03.429Z,48.49
2017-06-18T00:51:43.905Z,48.59
2017-06-18T00:52:24.344Z,48.59
2017-06-18T00:53:04.794Z,48.59
2017-06-18T00:53:45.244Z,48.59
2017-06-18T00:54:25.700Z,48.39
2017-06-18T00:55:06.160Z,48.59
2017-06-18T00:55:46.619Z,48.49
2017-06-18T00:56:27.072Z,48.59
2017-06-18T00:57:07.536Z,48.79
2017-06-18T00:57:47.992Z,48.49
2017-06-18T00:58:28.451Z,48.59
2017-06-18T00:59:08.910Z,48.59
2017-06-18T00:59:49.367Z,48.59
2017-06-18T01:00:29.826Z,48.59
2017-06-18T01:01:10.278Z,48.49
2017-06-18T01:01:50.734Z,48.61
2017-06-18T01:02:31.194Z,48.69
2017-06-18T01:03:11.652Z,48.59
2017-06-18T01:03:52.112Z,48.59
2017-06-18T01:04:32.570Z,48.88
2017-06-18T01:05:13.028Z,48.88
2017-06-18T01:05:53.493Z,49.46
2017-06-18T01:06:33.948Z,49.46
2017-06-18T01:07:14.409Z,49.07
2017-06-18T01:07:54.864Z,48.97
2017-06-18T01:08:35.317Z,49.17
2017-06-18T01:09:15.773Z,49.07
2017-06-18T01:09:56.232Z,49.17
2017-06-18T01:10:36.692Z,49.56
2017-06-18T01:11:17.152Z,49.46
2017-06-18T01:11:57.610Z,49.37
2017-06-18T01:12:38.068Z,49.46
2017-06-18T01:13:18.531Z,49.37
2017-06-18T01:13:58.987Z,49.85
2017-06-18T01:14:39.460Z,49.75
2017-06-18T01:15:19.915Z,49.75
2017-06-18T01:16:00.372Z,49.85
2017-06-18T01:16:40.836Z,49.85
2017-06-18T01:17:21.298Z,50.14
2017-06-18T01:18:01.756Z,49.85
2017-06-18T01:18:42.218Z,49.75
2017-06-18T01:19:22.676Z,49.75
2017-06-18T01:20:03.139Z,49.95
2017-06-18T01:20:43.605Z,50.14
2017-06-18T01:21:24.063Z,50.14
2017-06-18T01:22:04.517Z,49.95
2017-06-18T01:22:44.974Z,50.14
2017-06-18T01:23:25.429Z,50.14
2017-06-18T01:24:05.885Z,50.14
2017-06-18T01:24:46.345Z,49.85
2017-06-18T01:25:26.795Z,49.85
2017-06-18T01:26:07.256Z,49.85
2017-06-18T01:26:47.712Z,49.95
2017-06-18T01:27:28.168Z,49.95
2017-06-18T01:28:08.631Z,50.14
2017-06-18T01:28:49.087Z,50.04
2017-06-18T01:29:29.543Z,50.04
2017-06-18T01:30:10.002Z,49.95
2017-06-18T01:30:50.456Z,49.95
2017-06-18T01:31:30.905Z,49.95
2017-06-18T01:32:11.358Z,50.33
2017-06-18T01:32:51.810Z,50.33
2017-06-18T01:33:32.268Z,50.43
2017-06-18T01:34:12.724Z,50.52
2017-06-18T01:34:53.173Z,50.82
2017-06-18T01:35:33.627Z,50.82
2017-06-18T01:36:14.091Z,50.82
2017-06-18T01:36:54.549Z,50.82
2017-06-18T01:37:35.000Z,50.92
2017-06-18T01:38:15.456Z,50.52
2017-06-18T01:38:55.921Z,50.62
2017-06-18T01:39:36.436Z,50.43
2017-06-18T01:40:16.901Z,50.52
2017-06-18T01:40:57.357Z,50.62
2017-06-18T01:41:37.811Z,50.43
2017-06-18T01:42:18.266Z,50.33
2017-06-18T01:42:58.709Z,50.72
2017-06-18T01:43:39.168Z,50.52
2017-06-18T01:44:19.621Z,50.72
2017-06-18T01:45:00.079Z,50.62
2017-06-18T01:45:40.545Z,50.72
2017-06-18T01:46:21.006Z,50.62
2017-06-18T01:47:01.475Z,50.52
2017-06-18T01:47:41.933Z,50.52
2017-06-18T01:48:22.392Z,50.82
2017-06-18T01:49:02.858Z,50.92
2017-06-18T01:49:43.301Z,50.92
2017-06-18T01:50:23.756Z,50.72
2017-06-18T01:51:04.209Z,51.01
2017-06-18T01:51:44.668Z,51.01
2017-06-18T01:52:25.128Z,50.92
2017-06-18T01:53:05.593Z,51.01
2017-06-18T01:53:46.046Z,50.72
2017-06-18T01:54:26.507Z,50.72
2017-06-18T01:55:06.963Z,50.72
2017-06-18T01:55:47.415Z,50.72
2017-06-18T01:56:27.870Z,51.1
2017-06-18T01:57:08.330Z,50.82
2017-06-18T01:57:48.789Z,50.92
2017-06-18T01:58:29.255Z,50.92
2017-06-18T01:59:09.712Z,51.01
2017-06-18T01:59:50.173Z,51.2
2017-06-18T02:00:30.638Z,51.1
2017-06-18T02:01:11.101Z,51.2
2017-06-18T02:01:51.558Z,51.1
2017-06-18T02:02:32.023Z,51.68
2017-06-18T02:03:12.479Z,51.5
2017-06-18T02:03:52.928Z,51.78
2017-06-18T02:04:33.389Z,51.78
2017-06-18T02:05:13.849Z,51.88
2017-06-18T02:05:54.305Z,51.5
2017-06-18T02:06:34.761Z,51.5
2017-06-18T02:07:15.209Z,51.78
2017-06-18T02:07:55.660Z,51.5
2017-06-18T02:08:36.125Z,51.5
2017-06-18T02:09:16.583Z,51.5
2017-06-18T02:09:57.031Z,51.4
2017-06-18T02:10:37.495Z,51.5
2017-06-18T02:11:17.944Z,51.5
2017-06-18T02:11:58.409Z,51.4
2017-06-18T02:12:38.869Z,51.5
2017-06-18T02:13:19.331Z,51.59
2017-06-18T02:13:59.785Z,51.3
2017-06-18T02:14:40.235Z,51.3
2017-06-18T02:15:20.695Z,51.3
2017-06-18T02:16:01.142Z,51.2
2017-06-18T02:16:41.596Z,51.4
2017-06-18T02:17:22.063Z,51.4
2017-06-18T02:18:02.523Z,51.4
2017-06-18T02:18:42.985Z,51.3
2017-06-18T02:19:23.440Z,51.1
2017-06-18T02:20:03.901Z,51.78
2017-06-18T02:20:44.366Z,51.78
2017-06-18T02:21:24.817Z,51.68
2017-06-18T02:22:05.281Z,51.5
2017-06-18T02:22:45.762Z,51.68
2017-06-18T02:23:26.216Z,51.5
2017-06-18T02:24:06.674Z,51.98
2017-06-18T02:24:47.132Z,51.78
2017-06-18T02:25:27.587Z,51.78
2017-06-18T02:26:08.048Z,51.98
2017-06-18T02:26:48.502Z,52.08
2017-06-18T02:27:28.965Z,51.59
2017-06-18T02:28:09.416Z,51.78
2017-06-18T02:28:49.875Z,51.88
2017-06-18T02:29:30.335Z,51.78
2017-06-18T02:30:10.790Z,51.78
2017-06-18T02:30:51.254Z,51.78
2017-06-18T02:31:31.712Z,51.78
2017-06-18T02:32:12.182Z,51.59
2017-06-18T02:32:52.672Z,51.59
2017-06-18T02:33:33.124Z,51.59
2017-06-18T02:34:13.589Z,51.59
2017-06-18T02:34:54.058Z,51.59
2017-06-18T02:35:34.526Z,51.68
2017-06-18T02:36:14.988Z,51.88
2017-06-18T02:36:55.445Z,51.98
2017-06-18T02:37:35.910Z,51.5
2017-06-18T02:38:16.369Z,52.27
2017-06-18T02:38:56.825Z,52.36
2017-06-18T02:39:37.281Z,51.88
2017-06-18T02:40:17.745Z,52.56
2017-06-18T02:40:58.204Z,52.27
2017-06-18T02:41:38.680Z,52.36
2017-06-18T02:42:19.140Z,52.56
2017-06-18T02:42:59.624Z,52.46
2017-06-18T02:43:40.066Z,52.36
2017-06-18T02:44:20.526Z,52.46
2017-06-18T02:45:01.003Z,52.46
2017-06-18T02:45:41.466Z,52.36
2017-06-18T02:46:21.928Z,52.46
2017-06-18T02:47:02.385Z,52.36
2017-06-18T02:47:42.843Z,52.36
2017-06-18T02:48:23.302Z,52.36
2017-06-18T02:49:03.760Z,52.27
2017-06-18T02:49:44.219Z,52.56
2017-06-18T02:50:24.676Z,52.36
2017-06-18T02:51:05.137Z,52.36
2017-06-18T02:51:45.607Z,52.36
2017-06-18T02:52:26.066Z,52.56
2017-06-18T02:53:06.523Z,52.36
2017-06-18T02:53:46.980Z,52.36
2017-06-18T02:54:27.441Z,52.46
2017-06-18T02:55:07.891Z,52.36
2017-06-18T02:55:48.356Z,52.36
2017-06-18T02:56:28.814Z,52.27
2017-06-18T02:57:09.278Z,52.27
2017-06-18T02:57:49.743Z,51.98
2017-06-18T02:58:30.207Z,52.36
2017-06-18T02:59:10.664Z,52.36
2017-06-18T02:59:51.128Z,52.46
2017-06-18T03:00:31.587Z,52.36
2017-06-18T03:01:12.045Z,52.36
2017-06-18T03:01:52.505Z,52.36
2017-06-18T03:02:32.965Z,52.27
2017-06-18T03:03:13.423Z,52.36
2017-06-18T03:03:53.882Z,52.27
2017-06-18T03:04:34.338Z,52.08
2017-06-18T03:05:14.796Z,52.27
2017-06-18T03:05:55.252Z,52.27
2017-06-18T03:06:35.715Z,52.17
2017-06-18T03:07:16.172Z,52.27
2017-06-18T03:07:56.630Z,52.46
2017-06-18T03:08:37.075Z,52.27
2017-06-18T03:09:17.552Z,52.27
2017-06-18T03:09:57.997Z,52.17
2017-06-18T03:10:38.452Z,52.27
2017-06-18T03:11:18.905Z,52.27
2017-06-18T03:11:59.366Z,52.27
2017-06-18T03:12:39.820Z,52.27
2017-06-18T03:13:20.309Z,52.27
2017-06-18T03:14:00.767Z,52.46
2017-06-18T03:14:41.219Z,52.36
2017-06-18T03:15:21.679Z,52.46
2017-06-18T03:16:02.134Z,52.36
2017-06-18T03:16:42.592Z,52.56
2017-06-18T03:17:23.051Z,52.46
2017-06-18T03:18:03.511Z,52.56
2017-06-18T03:18:43.970Z,52.36
2017-06-18T03:19:24.435Z,52.27
2017-06-18T03:20:04.895Z,52.17
2017-06-18T03:20:45.353Z,52.17
2017-06-18T03:21:25.811Z,52.27
2017-06-18T03:22:06.281Z,52.27
2017-06-18T03:22:46.731Z,52.08
2017-06-18T03:23:27.198Z,52.27
2017-06-18T03:24:07.666Z,52.27
2017-06-18T03:24:48.129Z,52.27
2017-06-18T03:25:28.589Z,52.27
2017-06-18T03:26:09.046Z,52.36
2017-06-18T03:26:49.507Z,52.17
2017-06-18T03:27:29.970Z,52.27
2017-06-18T03:28:10.423Z,52.17
2017-06-18T03:28:50.884Z,52.36
2017-06-18T03:29:31.345Z,52.36
2017-06-18T03:30:11.917Z,52.27
2017-06-18T03:30:52.343Z,52.17
2017-06-18T03:31:32.805Z,52.27
2017-06-18T03:32:13.262Z,52.17
2017-06-18T03:32:53.723Z,52.36
2017-06-18T03:33:34.180Z,52.46
2017-06-18T03:34:14.637Z,52.36
2017-06-18T03:34:55.097Z,52.36
2017-06-18T03:35:35.558Z,52.36
2017-06-18T03:36:16.017Z,52.75
2017-06-18T03:36:56.474Z,52.56
2017-06-18T03:37:36.934Z,52.46
2017-06-18T03:38:17.391Z,52.46
2017-06-18T03:38:57.847Z,52.46
2017-06-18T03:39:38.308Z,52.56
2017-06-18T03:40:18.763Z,52.36
2017-06-18T03:40:59.218Z,52.56
2017-06-18T03:41:39.672Z,52.56
2017-06-18T03:42:20.148Z,52.66
2017-06-18T03:43:00.606Z,52.56
2017-06-18T03:43:41.077Z,52.46
2017-06-18T03:44:21.524Z,52.36
2017-06-18T03:45:01.989Z,52.56
2017-06-18T03:45:42.454Z,52.56
2017-06-18T03:46:22.915Z,52.56
2017-06-18T03:47:03.373Z,52.56
2017-06-18T03:47:43.831Z,52.46
2017-06-18T03:48:24.292Z,52.46
2017-06-18T03:49:04.746Z,52.56
2017-06-18T03:49:45.206Z,52.46
2017-06-18T03:50:25.666Z,52.56
2017-06-18T03:51:06.126Z,52.56
2017-06-18T03:51:46.589Z,52.46
2017-06-18T03:52:27.057Z,52.46
2017-06-18T03:53:07.512Z,52.56
2017-06-18T03:53:47.973Z,52.56
2017-06-18T03:54:28.426Z,52.27
2017-06-18T03:55:08.879Z,52.36
2017-06-18T03:55:49.341Z,52.27
2017-06-18T03:56:29.801Z,52.66
2017-06-18T03:57:10.260Z,52.46
2017-06-18T03:57:50.714Z,52.27
2017-06-18T03:58:31.177Z,52.56
2017-06-18T03:59:11.636Z,52.36
2017-06-18T03:59:52.095Z,52.17
2017-06-18T04:00:32.549Z,52.27
2017-06-18T04:01:13.007Z,52.27
2017-06-18T04:01:53.463Z,52.27
2017-06-18T04:02:33.924Z,52.17
2017-06-18T04:03:14.384Z,52.36
2017-06-18T04:03:54.846Z,52.27
2017-06-18T04:04:35.306Z,52.27
2017-06-18T04:05:15.744Z,52.27
2017-06-18T04:05:56.200Z,52.36
2017-06-18T04:06:36.646Z,52.36
2017-06-18T04:07:17.100Z,52.27
2017-06-18T04:07:57.558Z,52.56
2017-06-18T04:08:38.015Z,52.56
2017-06-18T04:09:18.476Z,52.66
2017-06-18T04:09:58.950Z,52.66
2017-06-18T04:10:39.408Z,52.27
2017-06-18T04:11:19.870Z,52.27
2017-06-18T04:12:00.333Z,52.17
2017-06-18T04:12:40.795Z,52.27
2017-06-18T04:13:21.250Z,52.36
2017-06-18T04:14:01.708Z,52.27
2017-06-18T04:14:42.166Z,52.56
2017-06-18T04:15:22.626Z,52.66
2017-06-18T04:16:03.076Z,52.75
2017-06-18T04:16:43.523Z,52.66
2017-06-18T04:17:23.970Z,52.36
2017-06-18T04:18:04.438Z,52.66
2017-06-18T04:18:44.892Z,52.27
2017-06-18T04:19:25.366Z,52.46
2017-06-18T04:20:05.821Z,52.36
2017-06-18T04:20:46.276Z,52.46
2017-06-18T04:21:26.733Z,52.56
2017-06-18T04:22:07.192Z,52.85
2017-06-18T04:22:47.649Z,52.95
2017-06-18T04:23:28.107Z,52.95
2017-06-18T04:24:08.571Z,53.14
2017-06-18T04:24:49.024Z,52.75
2017-06-18T04:25:29.508Z,52.75
2017-06-18T04:26:09.947Z,52.95
2017-06-18T04:26:50.407Z,52.85
2017-06-18T04:27:30.858Z,52.95
2017-06-18T04:28:11.315Z,52.95
2017-06-18T04:28:51.775Z,52.66
2017-06-18T04:29:32.231Z,52.95
2017-06-18T04:30:12.672Z,53.04
2017-06-18T04:30:53.133Z,52.66
2017-06-18T04:31:33.594Z,52.95
2017-06-18T04:32:14.040Z,52.75
2017-06-18T04:32:54.497Z,53.14
2017-06-18T04:33:34.957Z,52.95
2017-06-18T04:34:15.463Z,52.95
2017-06-18T04:34:55.952Z,52.66
2017-06-18T04:35:36.414Z,52.85
2017-06-18T04:36:16.874Z,52.95
2017-06-18T04:36:57.335Z,52.95
2017-06-18T04:37:37.787Z,52.66
2017-06-18T04:38:18.244Z,52.85
2017-06-18T04:38:58.701Z,52.85
2017-06-18T04:39:39.165Z,53.04
2017-06-18T04:40:19.619Z,52.75
2017-06-18T04:41:00.081Z,52.66
2017-06-18T04:41:40.537Z,52.85
2017-06-18T04:42:20.997Z,52.95
2017-06-18T04:43:01.458Z,53.04
2017-06-18T04:43:41.918Z,52.75
2017-06-18T04:44:22.376Z,52.95
2017-06-18T04:45:02.827Z,52.75
2017-06-18T04:45:43.279Z,52.85
2017-06-18T04:46:23.748Z,52.95
2017-06-18T04:47:04.195Z,52.75
2017-06-18T04:47:44.660Z,52.85
2017-06-18T04:48:25.112Z,52.85
2017-06-18T04:49:05.556Z,52.66
2017-06-18T04:49:46.016Z,52.95
2017-06-18T04:50:26.473Z,52.75
2017-06-18T04:51:06.929Z,52.85
2017-06-18T04:51:47.391Z,52.75
2017-06-18T04:52:27.849Z,52.85
2017-06-18T04:53:08.307Z,52.75
2017-06-18T04:53:48.760Z,52.75
2017-06-18T04:54:29.221Z,52.75
2017-06-18T04:55:09.680Z,53.04
2017-06-18T04:55:50.139Z,52.56
2017-06-18T04:56:30.600Z,53.14
2017-06-18T04:57:11.056Z,52.75
2017-06-18T04:57:51.516Z,53.04
2017-06-18T04:58:31.980Z,52.66
2017-06-18T04:59:12.438Z,52.75
2017-06-18T04:59:52.901Z,52.75
2017-06-18T05:00:33.353Z,52.95
2017-06-18T05:01:13.809Z,52.95
2017-06-18T05:01:54.269Z,52.75
2017-06-18T05:02:34.729Z,52.95
2017-06-18T05:03:15.189Z,52.85
2017-06-18T05:03:55.639Z,52.75
2017-06-18T05:04:36.102Z,52.85
2017-06-18T05:05:16.556Z,52.75
2017-06-18T05:05:57.028Z,52.85
2017-06-18T05:06:37.476Z,52.56
2017-06-18T05:07:17.934Z,52.95
2017-06-18T05:07:58.394Z,53.04
2017-06-18T05:08:38.879Z,52.85
2017-06-18T05:09:19.341Z,52.95
2017-06-18T05:09:59.801Z,52.95
2017-06-18T05:10:40.264Z,52.85
2017-06-18T05:11:20.723Z,52.75
2017-06-18T05:12:01.183Z,52.75
2017-06-18T05:12:41.641Z,52.85
2017-06-18T05:13:22.108Z,52.85
2017-06-18T05:14:02.562Z,52.85
2017-06-18T05:14:43.029Z,52.85
2017-06-18T05:15:23.491Z,52.75
2017-06-18T05:16:03.945Z,52.95
2017-06-18T05:16:44.410Z,52.56
2017-06-18T05:17:24.864Z,53.14
2017-06-18T05:18:05.322Z,52.56
2017-06-18T05:18:45.798Z,52.85
2017-06-18T05:19:26.257Z,52.85
2017-06-18T05:20:06.715Z,52.66
2017-06-18T05:20:47.173Z,52.66
2017-06-18T05:21:27.636Z,52.66
2017-06-18T05:22:08.097Z,52.85
2017-06-18T05:22:48.555Z,52.75
2017-06-18T05:23:29.014Z,52.66
2017-06-18T05:24:09.478Z,52.95
2017-06-18T05:24:49.936Z,52.66
2017-06-18T05:25:30.396Z,52.56
2017-06-18T05:26:10.856Z,52.56
2017-06-18T05:26:51.322Z,52.66
2017-06-18T05:27:31.784Z,52.56
2017-06-18T05:28:12.243Z,52.36
2017-06-18T05:28:52.700Z,52.85
2017-06-18T05:29:33.156Z,52.36
2017-06-18T05:30:13.619Z,52.56
2017-06-18T05:30:54.076Z,52.66
2017-06-18T05:31:34.538Z,52.56
2017-06-18T05:32:15.000Z,52.66
2017-06-18T05:32:55.460Z,52.66
2017-06-18T05:33:35.919Z,52.66
2017-06-18T05:34:16.377Z,52.27
2017-06-18T05:34:56.836Z,52.56
2017-06-18T05:35:37.295Z,52.66
2017-06-18T05:36:17.756Z,52.27
2017-06-18T05:36:58.211Z,52.49
2017-06-18T05:37:38.667Z,52.66
2017-06-18T05:38:19.130Z,52.49
2017-06-18T05:38:59.584Z,52.56
2017-06-18T05:39:40.041Z,52.46
2017-06-18T05:40:20.553Z,52.29
2017-06-18T05:41:01.010Z,52.75
2017-06-18T05:41:41.472Z,52.46
2017-06-18T05:42:21.926Z,52.75
2017-06-18T05:43:02.381Z,52.46
2017-06-18T05:43:42.843Z,52.66
2017-06-18T05:44:23.294Z,52.85
2017-06-18T05:45:03.744Z,52.66
2017-06-18T05:45:44.208Z,52.85
2017-06-18T05:46:24.671Z,53.04
2017-06-18T05:47:05.129Z,52.85
2017-06-18T05:47:45.588Z,52.66
2017-06-18T05:48:26.083Z,53.04
2017-06-18T05:49:06.541Z,52.75
2017-06-18T05:49:47.001Z,52.75
2017-06-18T05:50:27.457Z,52.66
2017-06-18T05:51:07.922Z,52.85
2017-06-18T05:51:48.387Z,52.75
2017-06-18T05:52:28.858Z,52.66
2017-06-18T05:53:09.321Z,52.95
2017-06-18T05:53:49.781Z,52.85
2017-06-18T05:54:30.245Z,52.95
2017-06-18T05:55:10.702Z,53.07
2017-06-18T05:55:51.154Z,52.85
2017-06-18T05:56:31.617Z,52.75
2017-06-18T05:57:12.071Z,52.85
2017-06-18T05:57:52.528Z,52.85
2017-06-18T05:58:32.990Z,52.75
2017-06-18T05:59:13.452Z,52.75
2017-06-18T05:59:53.906Z,52.49
2017-06-18T06:00:34.367Z,52.56
2017-06-18T06:01:14.828Z,52.49
2017-06-18T06:01:55.287Z,52.39
2017-06-18T06:02:35.815Z,52.36
2017-06-18T06:03:16.281Z,52.17
2017-06-18T06:03:56.741Z,52.68
2017-06-18T06:04:37.206Z,52.17
2017-06-18T06:05:17.652Z,52.49
2017-06-18T06:05:58.115Z,52.29
2017-06-18T06:06:38.569Z,52.39
2017-06-18T06:07:19.030Z,52.68
2017-06-18T06:07:59.487Z,52.58
2017-06-18T06:08:39.945Z,52.49
2017-06-18T06:09:20.411Z,52.68
2017-06-18T06:10:00.871Z,52.58
2017-06-18T06:10:41.335Z,52.29
2017-06-18T06:11:21.792Z,52.58
2017-06-18T06:12:02.244Z,52.49
2017-06-18T06:12:42.706Z,52.49
2017-06-18T06:13:23.164Z,52.39
2017-06-18T06:14:03.629Z,52.39
2017-06-18T06:14:44.095Z,52.2
2017-06-18T06:15:24.545Z,52.29
2017-06-18T06:16:05.008Z,52.29
2017-06-18T06:16:45.450Z,52.29
2017-06-18T06:17:25.915Z,52.29
2017-06-18T06:18:06.371Z,52.2
2017-06-18T06:18:46.833Z,52.29
2017-06-18T06:19:27.289Z,52.29
2017-06-18T06:20:07.747Z,52.29
2017-06-18T06:20:48.205Z,52.1
2017-06-18T06:21:28.673Z,52.49
2017-06-18T06:22:09.137Z,52.39
2017-06-18T06:22:49.575Z,52.39
2017-06-18T06:23:30.044Z,52.1
2017-06-18T06:24:10.506Z,52.39
2017-06-18T06:24:50.962Z,52.49
2017-06-18T06:25:31.423Z,52.39
2017-06-18T06:26:11.877Z,52.39
2017-06-18T06:26:52.339Z,52.29
2017-06-18T06:27:32.796Z,51.9
2017-06-18T06:28:13.253Z,52
2017-06-18T06:28:53.710Z,51.9
2017-06-18T06:29:34.169Z,51.81
2017-06-18T06:30:14.633Z,51.9
2017-06-18T06:30:55.093Z,52.1
2017-06-18T06:31:35.572Z,51.62
2017-06-18T06:32:16.031Z,51.62
2017-06-18T06:32:56.493Z,51.72
2017-06-18T06:33:36.966Z,51.62
2017-06-18T06:34:17.436Z,51.62
2017-06-18T06:34:57.939Z,51.9
2017-06-18T06:35:38.372Z,51.72
2017-06-18T06:36:18.835Z,51.81
2017-06-18T06:36:59.302Z,51.81
2017-06-18T06:37:39.797Z,51.72
2017-06-18T06:38:20.259Z,51.9
2017-06-18T06:39:00.745Z,52
2017-06-18T06:39:41.174Z,52
2017-06-18T06:40:21.636Z,52.1
2017-06-18T06:41:02.097Z,52.1
2017-06-18T06:41:42.555Z,51.81
2017-06-18T06:42:23.006Z,51.52
2017-06-18T06:43:03.464Z,51.52
2017-06-18T06:43:43.922Z,51.81
2017-06-18T06:44:24.380Z,51.72
2017-06-18T06:45:04.832Z,51.81
2017-06-18T06:45:45.273Z,51.52
2017-06-18T06:46:25.734Z,51.52
2017-06-18T06:47:06.191Z,51.42
2017-06-18T06:47:46.666Z,51.32
2017-06-18T06:48:27.123Z,51.45
2017-06-18T06:49:07.581Z,51.42
2017-06-18T06:49:48.050Z,51.45
2017-06-18T06:50:28.518Z,51.32
2017-06-18T06:51:08.983Z,51.54
2017-06-18T06:51:49.444Z,51.32
2017-06-18T06:52:29.927Z,51.64
2017-06-18T06:53:10.380Z,51.25
2017-06-18T06:53:50.865Z,51.54
2017-06-18T06:54:31.289Z,51.84
2017-06-18T06:55:11.753Z,51.74
2017-06-18T06:55:52.221Z,51.64
2017-06-18T06:56:32.686Z,51.25
2017-06-18T06:57:13.164Z,51.45
2017-06-18T06:57:53.611Z,51.25
2017-06-18T06:58:34.068Z,51.16
2017-06-18T07:00:21.811Z,51.16
2017-06-18T07:01:02.248Z,51.06
2017-06-18T07:01:42.724Z,50.96
2017-06-18T07:02:23.163Z,51.16
2017-06-18T07:03:03.591Z,51.16
2017-06-18T07:03:44.043Z,51.16
2017-06-18T07:04:24.496Z,51.06
2017-06-18T07:05:04.934Z,50.96
2017-06-18T07:05:45.383Z,51.16
2017-06-18T07:06:25.850Z,50.87
2017-06-18T07:07:06.309Z,51.16
2017-06-18T07:07:46.758Z,50.96
2017-06-18T07:08:27.205Z,50.96
2017-06-18T07:09:07.657Z,51.16
2017-06-18T07:09:48.116Z,50.77
2017-06-18T07:10:28.565Z,50.87
2017-06-18T07:11:09.022Z,50.77
2017-06-18T07:11:49.492Z,50.96
2017-06-18T07:12:29.944Z,50.77
2017-06-18T07:13:10.396Z,51.06
2017-06-18T07:13:50.854Z,51.06
2017-06-18T07:14:31.302Z,50.67
2017-06-18T07:15:11.782Z,50.67
2017-06-18T07:15:52.225Z,50.48
2017-06-18T07:16:32.665Z,50.57
2017-06-18T07:17:13.106Z,50.57
2017-06-18T07:17:53.545Z,50.67
2017-06-18T07:18:33.981Z,50.79
2017-06-18T07:19:14.424Z,50.57
2017-06-18T07:19:54.842Z,50.6
2017-06-18T07:20:35.239Z,50.29
2017-06-18T07:21:15.692Z,50.57
2017-06-18T07:21:56.137Z,50.6
2017-06-18T07:22:36.578Z,50.7
2017-06-18T07:23:17.037Z,50.67
2017-06-18T07:23:57.498Z,50.57
2017-06-18T07:24:37.952Z,50.99
2017-06-18T07:25:18.418Z,50.89
2017-06-18T07:25:58.863Z,50.89
2017-06-18T07:26:39.309Z,50.38
2017-06-18T07:27:19.754Z,50.48
2017-06-18T07:28:00.172Z,50.41
2017-06-18T07:28:40.610Z,49.9
2017-06-18T07:29:21.058Z,50.12
2017-06-18T07:30:01.480Z,50.12
2017-06-18T07:30:41.883Z,50.21
2017-06-18T07:31:22.372Z,50.12
2017-06-18T07:32:02.762Z,50.12
2017-06-18T07:33:50.591Z,50.12
2017-06-18T07:34:31.042Z,49.92
2017-06-18T07:35:11.487Z,49.92
2017-06-18T07:35:51.955Z,49.82
2017-06-18T07:36:32.383Z,50.21
2017-06-18T07:37:12.826Z,50.12
2017-06-18T07:37:53.290Z,50.21
2017-06-18T07:38:33.729Z,49.82
2017-06-18T07:39:14.189Z,49.92
2017-06-18T07:39:54.634Z,49.82
2017-06-18T07:40:35.087Z,50.12
2017-06-18T07:41:15.531Z,50.21
2017-06-18T07:41:55.991Z,50.12
2017-06-18T07:42:36.431Z,50.12
2017-06-18T07:43:16.890Z,49.82
2017-06-18T07:43:57.328Z,50.31
2017-06-18T07:44:37.774Z,50.02
2017-06-18T07:45:18.185Z,49.85
2017-06-18T07:45:58.628Z,49.92
2017-06-18T07:46:39.072Z,49.54
2017-06-18T07:47:19.525Z,49.63
2017-06-18T07:47:59.968Z,49.85
2017-06-18T07:48:40.429Z,49.46
2017-06-18T07:49:20.851Z,49.37
2017-06-18T07:50:01.295Z,49.66
2017-06-18T07:50:41.696Z,49.46
2017-06-18T07:51:22.124Z,49.46
2017-06-18T07:52:02.579Z,49.46
2017-06-18T07:52:43.033Z,49.56
2017-06-18T07:53:23.479Z,49.37
2017-06-18T07:55:36.483Z,49.37
2017-06-18T07:56:16.943Z,49.46
2017-06-18T07:56:57.396Z,49.66
2017-06-18T07:57:37.854Z,49.46
2017-06-18T07:58:18.332Z,49.56
2017-06-18T07:58:58.729Z,49.56
2017-06-18T07:59:39.182Z,49.37
2017-06-18T08:00:19.645Z,49.27
2017-06-18T08:01:00.083Z,49.66
2017-06-18T08:01:40.502Z,49.37
2017-06-18T08:02:20.921Z,49.37
2017-06-18T08:03:01.369Z,49.46
2017-06-18T08:03:41.832Z,49.37
2017-06-18T08:04:22.563Z,49.56
2017-06-18T08:05:03.352Z,49.66
2017-06-18T08:05:44.006Z,49.75
2017-06-18T08:06:24.585Z,49.37
2017-06-18T08:07:05.118Z,49.27
2017-06-18T08:07:45.584Z,49.37
2017-06-18T08:08:26.019Z,49.27
2017-06-18T08:09:06.545Z,49.75
2017-06-18T08:09:47.083Z,49.66
2017-06-18T08:10:27.610Z,49.56
2017-06-18T08:11:08.135Z,49.37
2017-06-18T08:13:05.930Z,49.37
2017-06-18T08:13:46.333Z,49.46
2017-06-18T08:14:26.795Z,49.46
2017-06-18T08:15:07.289Z,49.37
2017-06-18T08:15:47.747Z,49.46
2017-06-18T08:16:28.163Z,49.75
2017-06-18T08:17:08.593Z,49.75
2017-06-18T08:17:48.991Z,49.56
2017-06-18T08:18:29.458Z,49.07
2017-06-18T08:19:10.013Z,49.37
2017-06-18T08:19:50.589Z,49.49
2017-06-18T08:20:31.059Z,49.27
2017-06-18T08:21:11.434Z,49.49
2017-06-18T08:21:51.889Z,49.58
2017-06-18T08:24:05.067Z,49.1
2017-06-18T08:24:45.297Z,48.8
2017-06-18T08:25:25.917Z,48.9
2017-06-18T08:26:06.508Z,48.71
2017-06-18T08:26:47.047Z,48.8
2017-06-18T08:27:27.543Z,49
2017-06-18T08:28:08.071Z,49.19
2017-06-18T08:28:48.539Z,48.9
2017-06-18T08:29:28.944Z,49
2017-06-18T08:30:09.379Z,49
2017-06-18T08:30:49.827Z,48.71
2017-06-18T08:31:30.224Z,48.71
2017-06-18T08:32:10.708Z,48.52
2017-06-18T08:32:51.149Z,48.71
2017-06-18T08:33:31.820Z,48.61
2017-06-18T08:34:12.335Z,48.61
2017-06-18T08:36:10.364Z,48.52
2017-06-18T08:36:50.649Z,48.8
2017-06-18T08:37:31.150Z,49
2017-06-18T08:38:11.620Z,49
2017-06-18T08:38:52.098Z,48.22
2017-06-18T08:39:32.550Z,48.13
2017-06-18T08:40:12.965Z,48.42
2017-06-18T08:40:53.391Z,48.22
2017-06-18T08:41:33.828Z,48.32
2017-06-18T08:42:14.281Z,48.13
2017-06-18T08:42:54.823Z,48.42
2017-06-18T08:43:35.455Z,48.71
2017-06-18T08:44:15.954Z,48.71
2017-06-18T08:44:56.484Z,48.42
2017-06-18T08:45:36.909Z,48.22
2017-06-18T08:46:17.379Z,48.42
2017-06-18T08:46:57.908Z,48.32
2017-06-18T08:47:38.420Z,48.1
2017-06-18T08:48:18.878Z,48.22
2017-06-18T08:48:59.331Z,48.22
2017-06-18T08:49:40.262Z,48.13
2017-06-18T08:50:20.395Z,48.32
2017-06-18T08:51:00.939Z,48.42